sensor_id;sensor_type;location;lat;lon;timestamp;P1;durP1;ratioP1;P2;durP2;ratioP2
41259;SDS011;26993;48.958;9.330;2022-08-06T00:02:26;4.43;;;1.80;;
41259;SDS011;26993;48.958;9.330;2022-08-06T00:05:14;2.25;;;2.00;;
41259;SDS011;26993;48.958;9.330;2022-08-06T00:08:01;3.15;;;1.80;;
41259;SDS011;26993;48.958;9.330;2022-08-06T00:10:49;3.83;;;1.73;;
41259;SDS011;26993;48.958;9.330;2022-08-06T00:13:36;3.13;;;1.90;;
41259;SDS011;26993;48.958;9.330;2022-08-06T00:16:22;3.85;;;1.77;;
41259;SDS011;26993;48.958;9.330;2022-08-06T00:19:09;2.45;;;1.75;;
41259;SDS011;26993;48.958;9.330;2022-08-06T00:21:56;4.35;;;1.95;;
41259;SDS011;26993;48.958;9.330;2022-08-06T00:24:43;3.17;;;1.80;;
41259;SDS011;26993;48.958;9.330;2022-08-06T00:27:31;4.82;;;1.85;;
41259;SDS011;26993;48.958;9.330;2022-08-06T00:30:18;2.30;;;1.88;;
41259;SDS011;26993;48.958;9.330;2022-08-06T00:33:04;3.28;;;1.88;;
41259;SDS011;26993;48.958;9.330;2022-08-06T00:35:51;5.50;;;1.77;;
41259;SDS011;26993;48.958;9.330;2022-08-06T00:38:38;2.97;;;1.80;;
41259;SDS011;26993;48.958;9.330;2022-08-06T00:41:25;3.90;;;1.80;;
41259;SDS011;26993;48.958;9.330;2022-08-06T00:44:14;4.30;;;1.80;;
41259;SDS011;26993;48.958;9.330;2022-08-06T00:47:01;3.63;;;1.80;;
41259;SDS011;26993;48.958;9.330;2022-08-06T00:49:48;4.88;;;1.70;;
41259;SDS011;26993;48.958;9.330;2022-08-06T00:52:35;2.30;;;1.63;;
41259;SDS011;26993;48.958;9.330;2022-08-06T00:55:22;2.65;;;1.60;;
41259;SDS011;26993;48.958;9.330;2022-08-06T00:58:08;2.88;;;1.70;;
41259;SDS011;26993;48.958;9.330;2022-08-06T01:00:57;3.30;;;1.60;;
41259;SDS011;26993;48.958;9.330;2022-08-06T01:03:44;3.85;;;1.70;;
41259;SDS011;26993;48.958;9.330;2022-08-06T01:06:31;4.07;;;1.90;;
41259;SDS011;26993;48.958;9.330;2022-08-06T01:09:17;3.22;;;1.40;;
41259;SDS011;26993;48.958;9.330;2022-08-06T01:12:04;3.13;;;1.50;;
41259;SDS011;26993;48.958;9.330;2022-08-06T01:14:51;2.55;;;1.77;;
41259;SDS011;26993;48.958;9.330;2022-08-06T01:17:41;6.22;;;1.60;;
41259;SDS011;26993;48.958;9.330;2022-08-06T01:20:39;3.55;;;1.60;;
41259;SDS011;26993;48.958;9.330;2022-08-06T01:27:00;1.90;;;1.60;;
41259;SDS011;26993;48.958;9.330;2022-08-06T01:30:07;5.80;;;1.63;;
41259;SDS011;26993;48.958;9.330;2022-08-06T01:32:56;2.42;;;1.75;;
41259;SDS011;26993;48.958;9.330;2022-08-06T01:35:49;3.10;;;1.67;;
41259;SDS011;26993;48.958;9.330;2022-08-06T01:38:42;5.47;;;1.70;;
41259;SDS011;26993;48.958;9.330;2022-08-06T01:41:34;2.47;;;1.60;;
41259;SDS011;26993;48.958;9.330;2022-08-06T01:44:29;3.03;;;1.67;;
41259;SDS011;26993;48.958;9.330;2022-08-06T01:47:19;2.42;;;1.58;;
41259;SDS011;26993;48.958;9.330;2022-08-06T01:50:08;3.72;;;1.45;;
41259;SDS011;26993;48.958;9.330;2022-08-06T01:52:57;5.50;;;1.60;;
41259;SDS011;26993;48.958;9.330;2022-08-06T01:55:46;2.15;;;1.60;;
41259;SDS011;26993;48.958;9.330;2022-08-06T01:58:36;2.67;;;1.77;;
41259;SDS011;26993;48.958;9.330;2022-08-06T02:01:29;4.85;;;2.00;;
41259;SDS011;26993;48.958;9.330;2022-08-06T02:04:17;2.85;;;1.80;;
41259;SDS011;26993;48.958;9.330;2022-08-06T02:07:06;4.05;;;1.80;;
41259;SDS011;26993;48.958;9.330;2022-08-06T02:09:55;3.22;;;1.52;;
41259;SDS011;26993;48.958;9.330;2022-08-06T02:12:45;1.88;;;1.67;;
41259;SDS011;26993;48.958;9.330;2022-08-06T02:15:33;2.33;;;1.42;;
41259;SDS011;26993;48.958;9.330;2022-08-06T02:18:24;3.00;;;1.60;;
41259;SDS011;26993;48.958;9.330;2022-08-06T02:21:16;3.40;;;1.70;;
41259;SDS011;26993;48.958;9.330;2022-08-06T02:24:06;2.13;;;1.33;;
41259;SDS011;26993;48.958;9.330;2022-08-06T02:26:54;5.10;;;1.80;;
41259;SDS011;26993;48.958;9.330;2022-08-06T02:29:43;5.20;;;1.80;;
41259;SDS011;26993;48.958;9.330;2022-08-06T02:32:31;5.65;;;1.77;;
41259;SDS011;26993;48.958;9.330;2022-08-06T02:35:20;2.70;;;1.70;;
41259;SDS011;26993;48.958;9.330;2022-08-06T02:38:07;2.38;;;1.88;;
41259;SDS011;26993;48.958;9.330;2022-08-06T02:41:00;2.25;;;1.80;;
41259;SDS011;26993;48.958;9.330;2022-08-06T02:43:51;2.67;;;1.60;;
41259;SDS011;26993;48.958;9.330;2022-08-06T02:46:43;3.97;;;1.77;;
41259;SDS011;26993;48.958;9.330;2022-08-06T02:49:33;3.42;;;1.95;;
41259;SDS011;26993;48.958;9.330;2022-08-06T02:52:26;2.00;;;1.60;;
41259;SDS011;26993;48.958;9.330;2022-08-06T02:55:19;4.43;;;1.77;;
41259;SDS011;26993;48.958;9.330;2022-08-06T02:58:10;4.53;;;1.75;;
41259;SDS011;26993;48.958;9.330;2022-08-06T03:01:01;3.05;;;1.77;;
41259;SDS011;26993;48.958;9.330;2022-08-06T03:03:53;3.05;;;1.60;;
41259;SDS011;26993;48.958;9.330;2022-08-06T03:06:44;2.88;;;1.60;;
41259;SDS011;26993;48.958;9.330;2022-08-06T03:09:34;4.15;;;1.63;;
41259;SDS011;26993;48.958;9.330;2022-08-06T03:12:21;3.72;;;1.63;;
41259;SDS011;26993;48.958;9.330;2022-08-06T03:15:09;2.47;;;1.70;;
41259;SDS011;26993;48.958;9.330;2022-08-06T03:17:57;4.88;;;1.67;;
41259;SDS011;26993;48.958;9.330;2022-08-06T03:20:46;4.75;;;1.80;;
41259;SDS011;26993;48.958;9.330;2022-08-06T03:23:33;2.53;;;1.85;;
41259;SDS011;26993;48.958;9.330;2022-08-06T03:26:22;2.92;;;1.80;;
41259;SDS011;26993;48.958;9.330;2022-08-06T03:29:11;2.38;;;1.80;;
41259;SDS011;26993;48.958;9.330;2022-08-06T03:31:58;3.15;;;1.60;;
41259;SDS011;26993;48.958;9.330;2022-08-06T03:34:45;5.28;;;1.90;;
41259;SDS011;26993;48.958;9.330;2022-08-06T03:37:33;4.35;;;1.92;;
41259;SDS011;26993;48.958;9.330;2022-08-06T03:40:20;3.08;;;1.85;;
41259;SDS011;26993;48.958;9.330;2022-08-06T03:43:10;3.70;;;1.65;;
41259;SDS011;26993;48.958;9.330;2022-08-06T03:45:58;3.90;;;2.15;;
41259;SDS011;26993;48.958;9.330;2022-08-06T03:48:46;3.45;;;1.92;;
41259;SDS011;26993;48.958;9.330;2022-08-06T03:51:35;3.55;;;1.90;;
41259;SDS011;26993;48.958;9.330;2022-08-06T03:54:24;4.45;;;2.15;;
41259;SDS011;26993;48.958;9.330;2022-08-06T03:57:14;2.60;;;1.80;;
41259;SDS011;26993;48.958;9.330;2022-08-06T04:00:06;2.55;;;1.48;;
41259;SDS011;26993;48.958;9.330;2022-08-06T04:02:55;2.33;;;1.70;;
41259;SDS011;26993;48.958;9.330;2022-08-06T04:05:44;4.90;;;2.08;;
41259;SDS011;26993;48.958;9.330;2022-08-06T04:08:32;4.00;;;1.90;;
41259;SDS011;26993;48.958;9.330;2022-08-06T04:11:20;5.30;;;1.90;;
41259;SDS011;26993;48.958;9.330;2022-08-06T04:14:08;3.40;;;1.83;;
41259;SDS011;26993;48.958;9.330;2022-08-06T04:16:57;11.63;;;2.00;;
41259;SDS011;26993;48.958;9.330;2022-08-06T04:19:44;2.45;;;1.70;;
41259;SDS011;26993;48.958;9.330;2022-08-06T04:22:33;2.78;;;2.00;;
41259;SDS011;26993;48.958;9.330;2022-08-06T04:25:20;3.20;;;1.95;;
41259;SDS011;26993;48.958;9.330;2022-08-06T04:28:07;3.13;;;1.90;;
41259;SDS011;26993;48.958;9.330;2022-08-06T04:30:56;2.13;;;1.70;;
41259;SDS011;26993;48.958;9.330;2022-08-06T04:33:46;4.80;;;1.73;;
41259;SDS011;26993;48.958;9.330;2022-08-06T04:36:34;3.65;;;2.00;;
41259;SDS011;26993;48.958;9.330;2022-08-06T04:39:21;2.25;;;1.60;;
41259;SDS011;26993;48.958;9.330;2022-08-06T04:42:08;2.00;;;1.73;;
41259;SDS011;26993;48.958;9.330;2022-08-06T04:44:55;4.10;;;1.73;;
41259;SDS011;26993;48.958;9.330;2022-08-06T04:47:42;4.85;;;1.92;;
41259;SDS011;26993;48.958;9.330;2022-08-06T04:50:31;2.00;;;1.80;;
41259;SDS011;26993;48.958;9.330;2022-08-06T04:53:19;3.88;;;1.80;;
41259;SDS011;26993;48.958;9.330;2022-08-06T04:56:06;3.15;;;1.80;;
41259;SDS011;26993;48.958;9.330;2022-08-06T04:58:54;3.35;;;2.42;;
41259;SDS011;26993;48.958;9.330;2022-08-06T05:01:40;6.10;;;2.30;;
41259;SDS011;26993;48.958;9.330;2022-08-06T05:04:27;4.28;;;2.15;;
41259;SDS011;26993;48.958;9.330;2022-08-06T05:07:18;3.70;;;2.05;;
41259;SDS011;26993;48.958;9.330;2022-08-06T05:10:07;5.43;;;2.20;;
41259;SDS011;26993;48.958;9.330;2022-08-06T05:12:54;3.33;;;2.20;;
41259;SDS011;26993;48.958;9.330;2022-08-06T05:15:43;2.67;;;2.17;;
41259;SDS011;26993;48.958;9.330;2022-08-06T05:18:36;5.50;;;2.35;;
41259;SDS011;26993;48.958;9.330;2022-08-06T05:21:33;4.38;;;2.10;;
41259;SDS011;26993;48.958;9.330;2022-08-06T05:24:23;4.40;;;2.20;;
41259;SDS011;26993;48.958;9.330;2022-08-06T05:27:11;4.50;;;2.30;;
41259;SDS011;26993;48.958;9.330;2022-08-06T05:29:58;4.35;;;2.28;;
41259;SDS011;26993;48.958;9.330;2022-08-06T05:32:45;4.30;;;2.03;;
41259;SDS011;26993;48.958;9.330;2022-08-06T05:35:33;3.70;;;2.08;;
41259;SDS011;26993;48.958;9.330;2022-08-06T05:38:20;5.85;;;2.05;;
41259;SDS011;26993;48.958;9.330;2022-08-06T05:41:09;4.68;;;2.13;;
41259;SDS011;26993;48.958;9.330;2022-08-06T05:43:57;4.22;;;2.15;;
41259;SDS011;26993;48.958;9.330;2022-08-06T05:46:45;5.22;;;1.92;;
41259;SDS011;26993;48.958;9.330;2022-08-06T05:49:40;2.92;;;1.80;;
41259;SDS011;26993;48.958;9.330;2022-08-06T05:52:30;2.80;;;1.90;;
41259;SDS011;26993;48.958;9.330;2022-08-06T05:55:22;3.58;;;1.75;;
41259;SDS011;26993;48.958;9.330;2022-08-06T05:58:17;3.97;;;2.20;;
41259;SDS011;26993;48.958;9.330;2022-08-06T06:01:08;3.22;;;2.13;;
41259;SDS011;26993;48.958;9.330;2022-08-06T06:03:56;4.93;;;2.40;;
41259;SDS011;26993;48.958;9.330;2022-08-06T06:06:43;4.13;;;2.20;;
41259;SDS011;26993;48.958;9.330;2022-08-06T06:09:30;3.22;;;2.03;;
41259;SDS011;26993;48.958;9.330;2022-08-06T06:12:17;3.60;;;1.90;;
41259;SDS011;26993;48.958;9.330;2022-08-06T06:15:07;3.75;;;1.98;;
41259;SDS011;26993;48.958;9.330;2022-08-06T06:18:01;5.43;;;2.20;;
41259;SDS011;26993;48.958;9.330;2022-08-06T06:20:55;4.13;;;2.08;;
41259;SDS011;26993;48.958;9.330;2022-08-06T06:23:59;3.42;;;2.00;;
41259;SDS011;26993;48.958;9.330;2022-08-06T06:26:52;2.47;;;1.85;;
41259;SDS011;26993;48.958;9.330;2022-08-06T06:29:47;4.13;;;2.08;;
41259;SDS011;26993;48.958;9.330;2022-08-06T06:32:40;5.72;;;2.42;;
41259;SDS011;26993;48.958;9.330;2022-08-06T06:35:32;3.47;;;2.05;;
41259;SDS011;26993;48.958;9.330;2022-08-06T06:38:31;4.63;;;2.03;;
41259;SDS011;26993;48.958;9.330;2022-08-06T06:41:26;2.33;;;2.13;;
41259;SDS011;26993;48.958;9.330;2022-08-06T06:44:17;4.78;;;2.30;;
41259;SDS011;26993;48.958;9.330;2022-08-06T06:47:10;3.47;;;1.90;;
41259;SDS011;26993;48.958;9.330;2022-08-06T06:50:05;5.85;;;2.30;;
41259;SDS011;26993;48.958;9.330;2022-08-06T06:52:56;5.85;;;2.40;;
41259;SDS011;26993;48.958;9.330;2022-08-06T06:55:45;2.90;;;2.00;;
41259;SDS011;26993;48.958;9.330;2022-08-06T06:58:33;4.85;;;2.40;;
41259;SDS011;26993;48.958;9.330;2022-08-06T07:01:23;4.38;;;2.30;;
41259;SDS011;26993;48.958;9.330;2022-08-06T07:04:13;4.90;;;2.47;;
41259;SDS011;26993;48.958;9.330;2022-08-06T07:07:03;3.45;;;2.10;;
41259;SDS011;26993;48.958;9.330;2022-08-06T07:09:51;2.92;;;2.17;;
41259;SDS011;26993;48.958;9.330;2022-08-06T07:12:42;3.50;;;2.30;;
41259;SDS011;26993;48.958;9.330;2022-08-06T07:15:31;4.07;;;2.40;;
41259;SDS011;26993;48.958;9.330;2022-08-06T07:18:18;4.00;;;2.17;;
41259;SDS011;26993;48.958;9.330;2022-08-06T07:21:06;8.68;;;2.20;;
41259;SDS011;26993;48.958;9.330;2022-08-06T07:23:55;3.60;;;2.38;;
41259;SDS011;26993;48.958;9.330;2022-08-06T07:26:42;2.95;;;2.00;;
41259;SDS011;26993;48.958;9.330;2022-08-06T07:29:30;3.60;;;2.03;;
41259;SDS011;26993;48.958;9.330;2022-08-06T07:32:17;6.00;;;2.45;;
41259;SDS011;26993;48.958;9.330;2022-08-06T07:35:05;3.78;;;2.20;;
41259;SDS011;26993;48.958;9.330;2022-08-06T07:37:54;4.97;;;2.20;;
41259;SDS011;26993;48.958;9.330;2022-08-06T07:40:47;6.28;;;2.35;;
41259;SDS011;26993;48.958;9.330;2022-08-06T07:43:39;4.05;;;2.50;;
41259;SDS011;26993;48.958;9.330;2022-08-06T07:46:31;5.50;;;2.40;;
41259;SDS011;26993;48.958;9.330;2022-08-06T07:49:25;6.88;;;2.17;;
41259;SDS011;26993;48.958;9.330;2022-08-06T07:52:21;3.67;;;2.17;;
41259;SDS011;26993;48.958;9.330;2022-08-06T07:55:08;3.25;;;2.50;;
41259;SDS011;26993;48.958;9.330;2022-08-06T07:57:58;4.22;;;2.40;;
41259;SDS011;26993;48.958;9.330;2022-08-06T08:00:47;6.50;;;2.30;;
41259;SDS011;26993;48.958;9.330;2022-08-06T08:03:35;3.95;;;2.55;;
41259;SDS011;26993;48.958;9.330;2022-08-06T08:06:40;3.05;;;2.40;;
41259;SDS011;26993;48.958;9.330;2022-08-06T08:09:27;4.50;;;2.20;;
41259;SDS011;26993;48.958;9.330;2022-08-06T08:12:16;3.55;;;2.10;;
41259;SDS011;26993;48.958;9.330;2022-08-06T08:15:06;5.85;;;2.25;;
41259;SDS011;26993;48.958;9.330;2022-08-06T08:17:54;5.03;;;2.22;;
41259;SDS011;26993;48.958;9.330;2022-08-06T08:20:41;2.83;;;2.10;;
41259;SDS011;26993;48.958;9.330;2022-08-06T08:23:29;2.97;;;2.00;;
41259;SDS011;26993;48.958;9.330;2022-08-06T08:26:17;4.97;;;2.10;;
41259;SDS011;26993;48.958;9.330;2022-08-06T08:29:04;5.75;;;2.15;;
41259;SDS011;26993;48.958;9.330;2022-08-06T08:31:52;3.22;;;2.40;;
41259;SDS011;26993;48.958;9.330;2022-08-06T08:34:39;2.85;;;2.05;;
41259;SDS011;26993;48.958;9.330;2022-08-06T08:37:26;6.40;;;2.22;;
41259;SDS011;26993;48.958;9.330;2022-08-06T08:40:13;6.40;;;2.25;;
41259;SDS011;26993;48.958;9.330;2022-08-06T08:43:01;5.20;;;2.20;;
41259;SDS011;26993;48.958;9.330;2022-08-06T08:45:48;6.65;;;2.03;;
41259;SDS011;26993;48.958;9.330;2022-08-06T08:48:39;3.33;;;2.00;;
41259;SDS011;26993;48.958;9.330;2022-08-06T08:51:29;4.80;;;2.00;;
41259;SDS011;26993;48.958;9.330;2022-08-06T08:54:19;4.20;;;1.95;;
41259;SDS011;26993;48.958;9.330;2022-08-06T08:57:08;4.70;;;1.80;;
41259;SDS011;26993;48.958;9.330;2022-08-06T08:59:56;4.85;;;2.33;;
41259;SDS011;26993;48.958;9.330;2022-08-06T09:02:42;4.75;;;1.92;;
41259;SDS011;26993;48.958;9.330;2022-08-06T09:05:31;2.45;;;2.00;;
41259;SDS011;26993;48.958;9.330;2022-08-06T09:08:18;5.50;;;1.90;;
41259;SDS011;26993;48.958;9.330;2022-08-06T09:11:05;3.70;;;2.03;;
41259;SDS011;26993;48.958;9.330;2022-08-06T09:13:52;5.40;;;2.30;;
41259;SDS011;26993;48.958;9.330;2022-08-06T09:16:39;4.70;;;2.17;;
41259;SDS011;26993;48.958;9.330;2022-08-06T09:19:25;3.60;;;1.90;;
41259;SDS011;26993;48.958;9.330;2022-08-06T09:22:15;3.97;;;2.25;;
41259;SDS011;26993;48.958;9.330;2022-08-06T09:25:02;2.83;;;2.33;;
41259;SDS011;26993;48.958;9.330;2022-08-06T09:27:49;5.70;;;2.22;;
41259;SDS011;26993;48.958;9.330;2022-08-06T09:30:36;3.83;;;2.03;;
41259;SDS011;26993;48.958;9.330;2022-08-06T09:33:24;3.50;;;2.30;;
41259;SDS011;26993;48.958;9.330;2022-08-06T09:36:12;4.93;;;2.00;;
41259;SDS011;26993;48.958;9.330;2022-08-06T09:39:01;2.17;;;1.88;;
41259;SDS011;26993;48.958;9.330;2022-08-06T09:41:48;2.97;;;2.28;;
41259;SDS011;26993;48.958;9.330;2022-08-06T09:44:36;3.58;;;2.45;;
41259;SDS011;26993;48.958;9.330;2022-08-06T09:47:23;4.10;;;1.92;;
41259;SDS011;26993;48.958;9.330;2022-08-06T09:50:09;4.20;;;2.33;;
41259;SDS011;26993;48.958;9.330;2022-08-06T09:53:00;2.70;;;2.05;;
41259;SDS011;26993;48.958;9.330;2022-08-06T09:55:48;3.90;;;2.45;;
41259;SDS011;26993;48.958;9.330;2022-08-06T09:58:36;2.78;;;2.20;;
41259;SDS011;26993;48.958;9.330;2022-08-06T10:01:23;5.10;;;2.20;;
41259;SDS011;26993;48.958;9.330;2022-08-06T10:04:12;3.67;;;2.00;;
41259;SDS011;26993;48.958;9.330;2022-08-06T10:07:00;8.45;;;2.30;;
41259;SDS011;26993;48.958;9.330;2022-08-06T10:09:50;2.67;;;2.10;;
41259;SDS011;26993;48.958;9.330;2022-08-06T10:12:39;3.83;;;2.28;;
41259;SDS011;26993;48.958;9.330;2022-08-06T10:15:27;4.03;;;2.30;;
41259;SDS011;26993;48.958;9.330;2022-08-06T10:18:35;4.32;;;2.20;;
41259;SDS011;26993;48.958;9.330;2022-08-06T10:21:24;5.18;;;2.30;;
41259;SDS011;26993;48.958;9.330;2022-08-06T10:24:12;4.90;;;2.40;;
41259;SDS011;26993;48.958;9.330;2022-08-06T10:27:01;4.82;;;2.45;;
41259;SDS011;26993;48.958;9.330;2022-08-06T10:29:53;3.80;;;2.20;;
41259;SDS011;26993;48.958;9.330;2022-08-06T10:32:46;4.68;;;2.10;;
41259;SDS011;26993;48.958;9.330;2022-08-06T10:35:34;4.68;;;2.10;;
41259;SDS011;26993;48.958;9.330;2022-08-06T10:38:23;2.30;;;2.10;;
41259;SDS011;26993;48.958;9.330;2022-08-06T10:41:13;3.45;;;2.15;;
41259;SDS011;26993;48.958;9.330;2022-08-06T10:44:00;3.05;;;1.90;;
41259;SDS011;26993;48.958;9.330;2022-08-06T10:46:50;5.32;;;2.30;;
41259;SDS011;26993;48.958;9.330;2022-08-06T10:49:37;4.22;;;2.30;;
41259;SDS011;26993;48.958;9.330;2022-08-06T10:52:25;5.50;;;2.20;;
41259;SDS011;26993;48.958;9.330;2022-08-06T10:55:12;5.70;;;2.20;;
41259;SDS011;26993;48.958;9.330;2022-08-06T10:57:59;5.63;;;2.00;;
41259;SDS011;26993;48.958;9.330;2022-08-06T11:00:47;4.18;;;1.95;;
41259;SDS011;26993;48.958;9.330;2022-08-06T11:03:40;3.00;;;2.30;;
41259;SDS011;26993;48.958;9.330;2022-08-06T11:06:55;4.53;;;2.33;;
41259;SDS011;26993;48.958;9.330;2022-08-06T11:09:56;3.80;;;2.35;;
41259;SDS011;26993;48.958;9.330;2022-08-06T11:12:49;3.72;;;2.28;;
41259;SDS011;26993;48.958;9.330;2022-08-06T11:15:40;2.42;;;1.90;;
41259;SDS011;26993;48.958;9.330;2022-08-06T11:18:27;3.50;;;2.03;;
41259;SDS011;26993;48.958;9.330;2022-08-06T11:21:23;5.65;;;2.83;;
41259;SDS011;26993;48.958;9.330;2022-08-06T11:24:22;2.72;;;2.20;;
41259;SDS011;26993;48.958;9.330;2022-08-06T11:30:35;3.83;;;2.17;;
41259;SDS011;26993;48.958;9.330;2022-08-06T11:36:47;3.83;;;2.10;;
41259;SDS011;26993;48.958;9.330;2022-08-06T11:42:52;3.28;;;1.90;;
41259;SDS011;26993;48.958;9.330;2022-08-06T11:45:50;9.07;;;2.25;;
41259;SDS011;26993;48.958;9.330;2022-08-06T11:49:17;3.28;;;1.80;;
41259;SDS011;26993;48.958;9.330;2022-08-06T11:52:07;3.33;;;2.00;;
41259;SDS011;26993;48.958;9.330;2022-08-06T11:55:00;3.22;;;2.00;;
41259;SDS011;26993;48.958;9.330;2022-08-06T11:57:50;2.40;;;2.00;;
41259;SDS011;26993;48.958;9.330;2022-08-06T12:00:56;3.42;;;1.80;;
41259;SDS011;26993;48.958;9.330;2022-08-06T12:03:43;2.90;;;1.75;;
41259;SDS011;26993;48.958;9.330;2022-08-06T12:06:30;3.17;;;2.00;;
41259;SDS011;26993;48.958;9.330;2022-08-06T12:09:18;3.80;;;2.00;;
41259;SDS011;26993;48.958;9.330;2022-08-06T12:12:30;5.68;;;1.83;;
41259;SDS011;26993;48.958;9.330;2022-08-06T12:18:26;3.80;;;1.80;;
41259;SDS011;26993;48.958;9.330;2022-08-06T12:21:13;6.97;;;1.88;;
41259;SDS011;26993;48.958;9.330;2022-08-06T12:23:59;2.95;;;1.55;;
41259;SDS011;26993;48.958;9.330;2022-08-06T12:26:48;4.05;;;1.77;;
41259;SDS011;26993;48.958;9.330;2022-08-06T12:29:35;3.28;;;1.60;;
41259;SDS011;26993;48.958;9.330;2022-08-06T12:32:22;2.97;;;1.30;;
41259;SDS011;26993;48.958;9.330;2022-08-06T12:35:11;2.72;;;1.60;;
41259;SDS011;26993;48.958;9.330;2022-08-06T12:37:58;2.28;;;1.60;;
41259;SDS011;26993;48.958;9.330;2022-08-06T12:40:51;3.67;;;1.55;;
41259;SDS011;26993;48.958;9.330;2022-08-06T12:43:42;3.53;;;1.70;;
41259;SDS011;26993;48.958;9.330;2022-08-06T12:46:30;3.72;;;1.50;;
41259;SDS011;26993;48.958;9.330;2022-08-06T12:49:16;2.75;;;1.80;;
41259;SDS011;26993;48.958;9.330;2022-08-06T12:52:10;2.13;;;1.42;;
41259;SDS011;26993;48.958;9.330;2022-08-06T12:54:57;5.95;;;1.60;;
41259;SDS011;26993;48.958;9.330;2022-08-06T12:57:44;2.60;;;1.67;;
41259;SDS011;26993;48.958;9.330;2022-08-06T13:00:32;3.05;;;1.25;;
41259;SDS011;26993;48.958;9.330;2022-08-06T13:03:20;1.80;;;1.60;;
41259;SDS011;26993;48.958;9.330;2022-08-06T13:06:10;3.40;;;1.80;;
41259;SDS011;26993;48.958;9.330;2022-08-06T13:08:59;2.35;;;1.67;;
41259;SDS011;26993;48.958;9.330;2022-08-06T13:11:46;2.90;;;1.50;;
41259;SDS011;26993;48.958;9.330;2022-08-06T13:14:33;3.70;;;1.40;;
41259;SDS011;26993;48.958;9.330;2022-08-06T13:17:36;4.22;;;1.50;;
41259;SDS011;26993;48.958;9.330;2022-08-06T13:20:22;3.58;;;1.55;;
41259;SDS011;26993;48.958;9.330;2022-08-06T13:23:10;2.58;;;1.40;;
41259;SDS011;26993;48.958;9.330;2022-08-06T13:25:58;2.13;;;1.30;;
41259;SDS011;26993;48.958;9.330;2022-08-06T13:29:06;2.40;;;1.50;;
41259;SDS011;26993;48.958;9.330;2022-08-06T13:32:00;1.60;;;1.48;;
41259;SDS011;26993;48.958;9.330;2022-08-06T13:34:53;2.75;;;1.67;;
41259;SDS011;26993;48.958;9.330;2022-08-06T13:37:46;3.65;;;1.40;;
41259;SDS011;26993;48.958;9.330;2022-08-06T13:40:39;4.13;;;1.55;;
41259;SDS011;26993;48.958;9.330;2022-08-06T13:43:35;2.83;;;1.52;;
41259;SDS011;26993;48.958;9.330;2022-08-06T13:46:23;2.50;;;1.60;;
41259;SDS011;26993;48.958;9.330;2022-08-06T13:49:12;3.13;;;1.70;;
41259;SDS011;26993;48.958;9.330;2022-08-06T13:52:00;1.95;;;1.35;;
41259;SDS011;26993;48.958;9.330;2022-08-06T13:54:47;2.10;;;1.77;;
41259;SDS011;26993;48.958;9.330;2022-08-06T13:57:34;3.13;;;1.35;;
41259;SDS011;26993;48.958;9.330;2022-08-06T14:00:21;2.58;;;1.40;;
41259;SDS011;26993;48.958;9.330;2022-08-06T14:03:09;1.85;;;1.25;;
41259;SDS011;26993;48.958;9.330;2022-08-06T14:05:56;2.58;;;1.52;;
41259;SDS011;26993;48.958;9.330;2022-08-06T14:08:44;3.95;;;1.45;;
41259;SDS011;26993;48.958;9.330;2022-08-06T14:11:31;3.47;;;1.40;;
41259;SDS011;26993;48.958;9.330;2022-08-06T14:14:17;4.63;;;1.50;;
41259;SDS011;26993;48.958;9.330;2022-08-06T14:17:04;3.03;;;1.50;;
41259;SDS011;26993;48.958;9.330;2022-08-06T14:19:51;2.60;;;1.15;;
41259;SDS011;26993;48.958;9.330;2022-08-06T14:22:38;2.50;;;1.48;;
41259;SDS011;26993;48.958;9.330;2022-08-06T14:25:26;1.92;;;1.27;;
41259;SDS011;26993;48.958;9.330;2022-08-06T14:28:13;4.25;;;1.60;;
41259;SDS011;26993;48.958;9.330;2022-08-06T14:31:02;2.15;;;1.40;;
41259;SDS011;26993;48.958;9.330;2022-08-06T14:33:48;1.85;;;1.30;;
41259;SDS011;26993;48.958;9.330;2022-08-06T14:36:35;1.50;;;1.30;;
41259;SDS011;26993;48.958;9.330;2022-08-06T14:39:23;9.00;;;1.50;;
41259;SDS011;26993;48.958;9.330;2022-08-06T14:42:11;2.72;;;1.67;;
41259;SDS011;26993;48.958;9.330;2022-08-06T14:45:15;2.60;;;1.38;;
41259;SDS011;26993;48.958;9.330;2022-08-06T14:48:02;2.00;;;1.42;;
41259;SDS011;26993;48.958;9.330;2022-08-06T14:50:50;1.40;;;1.30;;
41259;SDS011;26993;48.958;9.330;2022-08-06T14:53:36;2.97;;;1.50;;
41259;SDS011;26993;48.958;9.330;2022-08-06T14:56:23;2.10;;;1.30;;
41259;SDS011;26993;48.958;9.330;2022-08-06T14:59:11;3.53;;;1.50;;
41259;SDS011;26993;48.958;9.330;2022-08-06T15:01:58;2.78;;;1.30;;
41259;SDS011;26993;48.958;9.330;2022-08-06T15:04:45;4.22;;;1.30;;
41259;SDS011;26993;48.958;9.330;2022-08-06T15:07:32;2.95;;;1.30;;
41259;SDS011;26993;48.958;9.330;2022-08-06T15:10:19;4.00;;;1.00;;
41259;SDS011;26993;48.958;9.330;2022-08-06T15:13:05;2.08;;;1.25;;
41259;SDS011;26993;48.958;9.330;2022-08-06T15:15:53;1.95;;;1.10;;
41259;SDS011;26993;48.958;9.330;2022-08-06T15:18:40;2.17;;;1.10;;
41259;SDS011;26993;48.958;9.330;2022-08-06T15:21:28;1.52;;;1.10;;
41259;SDS011;26993;48.958;9.330;2022-08-06T15:24:15;3.30;;;1.10;;
41259;SDS011;26993;48.958;9.330;2022-08-06T15:27:01;5.03;;;1.58;;
41259;SDS011;26993;48.958;9.330;2022-08-06T15:29:50;2.25;;;1.27;;
41259;SDS011;26993;48.958;9.330;2022-08-06T15:32:38;3.38;;;1.25;;
41259;SDS011;26993;48.958;9.330;2022-08-06T15:35:24;2.78;;;1.15;;
41259;SDS011;26993;48.958;9.330;2022-08-06T15:38:11;3.85;;;1.10;;
41259;SDS011;26993;48.958;9.330;2022-08-06T15:40:58;1.25;;;1.05;;
41259;SDS011;26993;48.958;9.330;2022-08-06T15:43:46;2.25;;;1.20;;
41259;SDS011;26993;48.958;9.330;2022-08-06T15:46:32;7.78;;;1.30;;
41259;SDS011;26993;48.958;9.330;2022-08-06T15:49:20;1.70;;;1.17;;
41259;SDS011;26993;48.958;9.330;2022-08-06T15:52:07;2.08;;;1.20;;
41259;SDS011;26993;48.958;9.330;2022-08-06T15:54:54;1.85;;;1.10;;
41259;SDS011;26993;48.958;9.330;2022-08-06T15:57:41;2.72;;;1.10;;
41259;SDS011;26993;48.958;9.330;2022-08-06T16:00:27;2.22;;;1.30;;
41259;SDS011;26993;48.958;9.330;2022-08-06T16:03:14;2.80;;;1.45;;
41259;SDS011;26993;48.958;9.330;2022-08-06T16:06:02;1.95;;;1.10;;
41259;SDS011;26993;48.958;9.330;2022-08-06T16:08:49;3.80;;;1.02;;
41259;SDS011;26993;48.958;9.330;2022-08-06T16:11:37;1.83;;;1.02;;
41259;SDS011;26993;48.958;9.330;2022-08-06T16:14:23;2.15;;;1.10;;
41259;SDS011;26993;48.958;9.330;2022-08-06T16:17:10;2.90;;;1.10;;
41259;SDS011;26993;48.958;9.330;2022-08-06T16:19:57;3.90;;;1.08;;
41259;SDS011;26993;48.958;9.330;2022-08-06T16:22:45;3.15;;;1.02;;
41259;SDS011;26993;48.958;9.330;2022-08-06T16:25:32;2.38;;;0.98;;
41259;SDS011;26993;48.958;9.330;2022-08-06T16:28:19;2.75;;;1.10;;
41259;SDS011;26993;48.958;9.330;2022-08-06T16:31:06;2.97;;;1.50;;
41259;SDS011;26993;48.958;9.330;2022-08-06T16:33:53;2.25;;;1.10;;
41259;SDS011;26993;48.958;9.330;2022-08-06T16:36:39;1.20;;;1.00;;
41259;SDS011;26993;48.958;9.330;2022-08-06T16:39:28;3.13;;;1.15;;
41259;SDS011;26993;48.958;9.330;2022-08-06T16:42:15;4.75;;;1.20;;
41259;SDS011;26993;48.958;9.330;2022-08-06T16:45:02;2.22;;;1.10;;
41259;SDS011;26993;48.958;9.330;2022-08-06T16:47:50;2.40;;;1.20;;
41259;SDS011;26993;48.958;9.330;2022-08-06T16:50:37;2.78;;;1.20;;
41259;SDS011;26993;48.958;9.330;2022-08-06T16:53:24;3.22;;;1.58;;
41259;SDS011;26993;48.958;9.330;2022-08-06T16:56:12;1.75;;;1.23;;
41259;SDS011;26993;48.958;9.330;2022-08-06T16:58:59;1.75;;;0.90;;
41259;SDS011;26993;48.958;9.330;2022-08-06T17:01:47;2.55;;;0.80;;
41259;SDS011;26993;48.958;9.330;2022-08-06T17:04:55;3.33;;;1.10;;
41259;SDS011;26993;48.958;9.330;2022-08-06T17:07:42;2.60;;;1.08;;
41259;SDS011;26993;48.958;9.330;2022-08-06T17:10:31;4.30;;;1.25;;
41259;SDS011;26993;48.958;9.330;2022-08-06T17:13:19;1.70;;;1.02;;
41259;SDS011;26993;48.958;9.330;2022-08-06T17:16:06;1.80;;;1.30;;
41259;SDS011;26993;48.958;9.330;2022-08-06T17:18:53;2.15;;;1.02;;